Pagina principale
METAR-TAF:

METAR-TAF

Aeroporti :

Aeroporto Internazionale di Nouakchott

Nouakchott, Mauritania

latitudine: 18-18-36N, longitudine: 015-58-11W, altezza: 3 m

Osservazione

Il bollettino è stato emesso 2 ore e 5 minuti fa, alle 23:00 UTC
Vento 16 kt da nord/nord-ovest
Temperature 21°C
Umidità 83%
Pressione 1011 hPa
Visibilità 10 km o più
nessuna nube inferiore a 1500 m e nessun cumulonembo

METAR: GQNO 302300Z 33016KT CAVOK 21/18 Q1011 NOSIG

Ora: 01:05 (01:05 UTC)

Previsione

Il bollettino è stato emesso 2 ore e 5 minuti fa, alle 23:00 UTC
Previsione valida dal 31 alle 00 UTC al 01 alle 06 UTC
Vento 18 kt da nord/nord-ovest
Visibilità: 7000 m
Temporaneamente
dal 31 alle 10 UTC al 31 alle 16 UTC
Vento 14 kt da ovest
Probabilità 30% :
Temporaneamente
dal 31 alle 15 UTC al 31 alle 19 UTC
Visibilità: 3500 m
Scaccia sabbia alto

TAF: GQNO 302300Z 3100/0106 34018KT 7000 NSC TEMPO 3110/3116 28014KT PROB30 TEMPO 3115/3119 3500 BLSA

Osservazioni e previsioni meteorologiche di più di 4000 aeroporti (messaggi METAR e TAF).

Le stazioni disponibili sono rappresentate dai dischi gialli e rossi sulla carta.

Puntare il mouse per vedere il nome della stazione.

Clicca sopra per visualizzare le osservazioni e previsioni meteorologiche.

Per cambiare la mappa : fare clic sui pulsanti verdi con una croce nera per ingrandire, il pulsante verde con un trattino per diminuire, o sulla freccia verde per le mappe adiacenti.


METAR-TAF: